createdAt,value
2022-09-23T00:01:03.601Z,75.71
2022-09-23T00:03:32.995Z,75.73
2022-09-23T00:06:02.604Z,75.29
2022-09-23T00:08:31.320Z,76.15
2022-09-23T00:11:05.674Z,76.01
2022-09-23T00:13:33.910Z,76.46
2022-09-23T00:16:03.923Z,76.34
2022-09-23T00:18:31.916Z,75.86
2022-09-23T00:21:03.848Z,76.28
2022-09-23T00:23:31.937Z,76.02
2022-09-23T00:26:02.825Z,75.80
2022-09-23T00:28:31.489Z,76.49
2022-09-23T00:31:03.365Z,76.27
2022-09-23T00:33:31.389Z,76.25
2022-09-23T00:36:00.460Z,76.54
2022-09-23T00:38:29.141Z,76.80
2022-09-23T00:41:17.103Z,76.81
2022-09-23T00:43:47.606Z,76.69
2022-09-23T00:46:19.501Z,76.64
2022-09-23T00:48:49.495Z,76.49
2022-09-23T00:51:19.638Z,76.53
2022-09-23T00:53:48.665Z,76.62
2022-09-23T00:56:20.366Z,76.30
2022-09-23T00:58:48.883Z,75.11
2022-09-23T01:01:16.946Z,75.35
2022-09-23T01:03:46.863Z,75.16
2022-09-23T01:06:15.400Z,75.09
2022-09-23T01:08:44.236Z,74.17
2022-09-23T01:11:26.103Z,74.64
2022-09-23T01:13:59.282Z,74.18
2022-09-23T01:16:31.991Z,74.99
2022-09-23T01:19:08.470Z,75.13
2022-09-23T01:21:44.215Z,75.68
2022-09-23T01:24:39.707Z,75.62
2022-09-23T01:27:17.293Z,76.01
2022-09-23T01:30:18.984Z,75.75
2022-09-23T01:33:04.594Z,75.73
2022-09-23T01:35:47.771Z,76.09
2022-09-23T01:38:34.683Z,76.31
2022-09-23T01:41:06.143Z,75.83
2022-09-23T01:43:39.729Z,75.86
2022-09-23T01:46:11.332Z,75.64
2022-09-23T01:48:46.416Z,76.16
2022-09-23T01:51:18.213Z,77.00
2022-09-23T01:53:49.036Z,76.17
2022-09-23T01:56:21.030Z,76.72
2022-09-23T01:58:52.221Z,76.84
2022-09-23T02:01:23.054Z,76.69
2022-09-23T02:03:55.435Z,77.33
2022-09-23T02:06:26.604Z,76.95
2022-09-23T02:09:00.356Z,77.14
2022-09-23T02:11:28.724Z,77.43
2022-09-23T02:14:00.185Z,77.87
2022-09-23T02:16:31.631Z,77.89
2022-09-23T02:19:02.896Z,78.09
2022-09-23T02:21:35.029Z,77.78
2022-09-23T02:24:09.138Z,77.63
2022-09-23T02:26:41.519Z,77.57
2022-09-23T02:29:18.359Z,77.81
2022-09-23T02:31:50.527Z,78.24
2022-09-23T02:34:29.295Z,78.31
2022-09-23T02:37:06.959Z,78.56
2022-09-23T02:39:41.276Z,78.33
2022-09-23T02:42:13.890Z,78.58
2022-09-23T02:44:42.409Z,78.40
2022-09-23T02:47:10.637Z,78.43
2022-09-23T02:49:40.210Z,78.64
2022-09-23T02:52:08.409Z,78.82
2022-09-23T02:54:36.440Z,79.02
2022-09-23T02:57:06.623Z,78.95
2022-09-23T02:59:35.483Z,78.99
2022-09-23T03:02:36.978Z,78.68
2022-09-23T03:05:09.116Z,78.06
2022-09-23T03:07:46.360Z,76.86
2022-09-23T03:10:19.765Z,76.48
2022-09-23T03:12:54.034Z,76.01
2022-09-23T03:15:26.349Z,76.33
2022-09-23T03:17:58.975Z,76.78
2022-09-23T03:20:34.188Z,76.91
2022-09-23T03:23:04.856Z,76.92
2022-09-23T03:25:36.214Z,77.15
2022-09-23T03:28:05.203Z,77.24
2022-09-23T03:30:35.576Z,77.65
2022-09-23T03:33:05.050Z,77.66
2022-09-23T03:38:52.989Z,78.22
2022-09-23T03:41:24.632Z,77.88
2022-09-23T03:43:53.370Z,77.36
2022-09-23T03:46:21.456Z,77.72
2022-09-23T03:48:49.577Z,78.17
2022-09-23T03:51:23.888Z,78.58
2022-09-23T03:53:52.092Z,78.37
2022-09-23T03:56:20.136Z,78.62
2022-09-23T03:58:48.968Z,78.91
2022-09-23T04:01:17.114Z,78.91
2022-09-23T04:03:45.437Z,79.32
2022-09-23T04:06:13.999Z,79.54
2022-09-23T04:08:43.531Z,79.33
2022-09-23T04:11:11.847Z,79.14
2022-09-23T04:13:40.546Z,78.86
2022-09-23T04:16:08.690Z,78.92
2022-09-23T04:18:36.830Z,79.25
2022-09-23T04:21:05.217Z,79.44
2022-09-23T04:23:33.330Z,79.76
2022-09-23T04:26:02.984Z,79.82
2022-09-23T04:28:31.356Z,79.58
2022-09-23T04:30:59.527Z,79.87
2022-09-23T04:33:28.260Z,79.36
2022-09-23T04:35:57.080Z,79.81
2022-09-23T04:38:25.268Z,79.55
2022-09-23T04:40:53.477Z,78.94
2022-09-23T04:43:24.122Z,79.20
2022-09-23T04:45:59.955Z,78.90
2022-09-23T04:48:28.168Z,78.36
2022-09-23T04:50:56.466Z,77.94
2022-09-23T04:53:24.536Z,77.38
2022-09-23T04:55:52.847Z,77.00
2022-09-23T04:58:23.104Z,77.14
2022-09-23T05:00:51.272Z,77.29
2022-09-23T05:03:19.372Z,78.14
2022-09-23T05:05:47.740Z,78.21
2022-09-23T05:08:16.002Z,79.33
2022-09-23T05:10:44.262Z,81.37
2022-09-23T05:13:12.430Z,81.54
2022-09-23T05:15:41.803Z,81.12
2022-09-23T05:18:09.941Z,81.60
2022-09-23T05:20:38.064Z,81.95
2022-09-23T05:23:06.491Z,82.83
2022-09-23T05:25:38.227Z,83.20
2022-09-23T05:28:06.909Z,83.70
2022-09-23T05:30:35.025Z,83.70
2022-09-23T05:33:04.662Z,83.25
2022-09-23T05:35:32.783Z,83.61
2022-09-23T05:38:01.057Z,84.31
2022-09-23T05:40:29.391Z,84.65
2022-09-23T05:42:57.560Z,84.44
2022-09-23T05:45:26.964Z,84.21
2022-09-23T05:47:55.150Z,84.16
2022-09-23T05:50:24.743Z,84.18
2022-09-23T05:52:53.004Z,84.42
2022-09-23T05:55:21.238Z,84.54
2022-09-23T05:57:49.276Z,84.62
2022-09-23T06:00:17.743Z,85.43
2022-09-23T06:02:45.999Z,85.66
2022-09-23T06:05:14.757Z,85.18
2022-09-23T06:07:44.829Z,86.10
2022-09-23T06:10:13.073Z,85.70
2022-09-23T06:12:42.465Z,85.61
2022-09-23T06:15:12.130Z,85.66
2022-09-23T06:17:40.326Z,85.44
2022-09-23T06:20:09.390Z,85.16
2022-09-23T06:22:39.741Z,85.21
2022-09-23T06:25:10.880Z,85.49
2022-09-23T06:27:39.141Z,85.74
2022-09-23T06:30:08.537Z,85.74
2022-09-23T06:32:36.689Z,84.99
2022-09-23T06:35:05.091Z,85.09
2022-09-23T06:37:33.881Z,84.52
2022-09-23T06:40:02.621Z,85.32
2022-09-23T06:42:32.135Z,85.42
2022-09-23T06:45:01.857Z,85.55
2022-09-23T06:47:30.174Z,85.11
2022-09-23T06:49:58.265Z,85.09
2022-09-23T06:52:26.725Z,85.58
2022-09-23T06:54:54.785Z,86.02
2022-09-23T06:57:22.926Z,86.20
2022-09-23T06:59:52.360Z,86.37
2022-09-23T07:02:20.598Z,86.36
2022-09-23T07:04:49.060Z,86.00
2022-09-23T07:07:18.692Z,85.97
2022-09-23T07:09:47.679Z,85.80
2022-09-23T07:12:16.347Z,86.12
2022-09-23T07:14:46.107Z,86.38
2022-09-23T07:17:15.682Z,86.22
2022-09-23T07:19:44.107Z,86.79
2022-09-23T07:22:12.296Z,87.02
2022-09-23T07:24:40.558Z,86.28
2022-09-23T07:27:08.695Z,86.58
2022-09-23T07:29:46.528Z,86.76
2022-09-23T07:32:18.124Z,86.55
2022-09-23T07:34:47.197Z,85.75
2022-09-23T07:37:15.334Z,85.99
2022-09-23T07:39:44.108Z,86.00
2022-09-23T07:42:13.346Z,85.68
2022-09-23T07:44:42.033Z,86.29
2022-09-23T07:47:10.166Z,85.94
2022-09-23T07:49:39.688Z,85.59
2022-09-23T07:52:07.791Z,85.04
2022-09-23T07:54:35.930Z,85.29
2022-09-23T07:57:04.185Z,85.48
2022-09-23T07:59:32.220Z,83.72
2022-09-23T08:02:00.565Z,83.85
2022-09-23T08:04:30.200Z,82.29
2022-09-23T08:07:01.154Z,82.69
2022-09-23T08:09:31.803Z,82.53
2022-09-23T08:12:00.120Z,82.42
2022-09-23T08:14:28.599Z,81.50
2022-09-23T08:16:57.667Z,81.31
2022-09-23T08:19:25.713Z,80.42
2022-09-23T08:21:54.480Z,81.45
2022-09-23T08:24:24.588Z,81.17
2022-09-23T08:26:54.065Z,80.95
2022-09-23T08:29:23.423Z,81.00
2022-09-23T08:31:51.499Z,80.49
2022-09-23T08:34:20.913Z,80.54
2022-09-23T08:36:49.017Z,80.23
2022-09-23T08:39:18.601Z,79.24
2022-09-23T08:41:58.241Z,80.35
2022-09-23T08:44:31.139Z,79.89
2022-09-23T08:47:06.824Z,78.88
2022-09-23T08:49:39.421Z,79.46
2022-09-23T08:52:14.586Z,78.92
2022-09-23T08:54:42.616Z,77.97
2022-09-23T08:57:20.736Z,77.20
2022-09-23T08:59:49.312Z,77.74
2022-09-23T09:02:20.828Z,77.17
2022-09-23T09:04:51.947Z,76.62
2022-09-23T09:07:36.182Z,77.21
2022-09-23T09:10:11.500Z,76.29
2022-09-23T09:12:43.639Z,76.82
2022-09-23T09:15:14.273Z,76.24
2022-09-23T09:17:48.461Z,75.31
2022-09-23T09:20:23.451Z,76.15
2022-09-23T09:22:55.045Z,75.19
2022-09-23T09:25:28.765Z,75.21
2022-09-23T09:28:01.654Z,75.76
2022-09-23T09:30:29.757Z,75.37
2022-09-23T09:33:01.132Z,75.74
2022-09-23T09:35:36.808Z,74.09
2022-09-23T09:38:05.755Z,73.61
2022-09-23T09:40:34.586Z,73.38
2022-09-23T09:43:05.239Z,73.76
2022-09-23T09:45:57.470Z,73.95
2022-09-23T09:48:32.799Z,72.55
2022-09-23T09:51:19.072Z,72.79
2022-09-23T09:53:47.114Z,72.72
2022-09-23T09:56:16.480Z,71.78
2022-09-23T09:58:48.432Z,71.53
2022-09-23T10:01:23.316Z,70.40
2022-09-23T10:03:56.933Z,70.34
2022-09-23T10:06:28.539Z,72.10
2022-09-23T10:09:11.399Z,71.77
2022-09-23T10:11:39.815Z,70.01
2022-09-23T10:14:13.465Z,70.05
2022-09-23T10:16:42.581Z,70.42
2022-09-23T10:19:17.994Z,70.73
2022-09-23T10:21:52.597Z,70.68
2022-09-23T10:24:23.998Z,70.15
2022-09-23T10:26:58.021Z,69.51
2022-09-23T10:29:31.932Z,67.86
2022-09-23T10:32:25.706Z,67.93
2022-09-23T10:34:57.037Z,69.27
2022-09-23T10:37:33.580Z,68.65
2022-09-23T10:40:20.178Z,69.07
2022-09-23T10:43:12.746Z,67.27
2022-09-23T10:46:05.712Z,66.79
2022-09-23T10:48:42.719Z,66.38
2022-09-23T10:51:15.734Z,67.11
2022-09-23T10:53:52.206Z,65.85
2022-09-23T10:56:26.658Z,65.67
2022-09-23T10:59:08.820Z,63.67
2022-09-23T11:01:44.629Z,65.46
2022-09-23T11:04:27.274Z,65.24
2022-09-23T11:07:14.150Z,65.86
2022-09-23T11:09:55.026Z,64.95
2022-09-23T11:12:32.422Z,65.50
2022-09-23T11:15:16.524Z,64.59
2022-09-23T11:18:23.365Z,65.02
2022-09-23T11:20:58.453Z,65.14
2022-09-23T11:23:37.115Z,62.22
2022-09-23T11:26:12.405Z,63.04
2022-09-23T11:29:00.721Z,62.39
2022-09-23T11:31:38.791Z,62.44
2022-09-23T11:34:31.024Z,61.98
2022-09-23T11:37:02.322Z,60.65
2022-09-23T11:39:33.885Z,59.53
2022-09-23T11:42:03.126Z,59.80
2022-09-23T11:44:34.203Z,59.69
2022-09-23T11:47:08.114Z,59.41
2022-09-23T11:49:40.777Z,56.59
2022-09-23T11:52:12.791Z,56.35
2022-09-23T11:54:44.981Z,56.86
2022-09-23T11:57:18.921Z,57.85
2022-09-23T12:02:30.296Z,56.68
2022-09-23T12:05:02.896Z,58.17
2022-09-23T12:07:40.656Z,58.63
2022-09-23T12:10:10.035Z,57.95
2022-09-23T12:12:42.680Z,57.92
2022-09-23T12:15:18.125Z,57.90
2022-09-23T12:17:56.927Z,60.50
2022-09-23T12:20:49.931Z,59.17
2022-09-23T12:23:32.626Z,58.81
2022-09-23T12:26:02.202Z,59.05
2022-09-23T12:28:32.590Z,59.88
2022-09-23T12:31:03.483Z,56.16
2022-09-23T12:33:33.292Z,56.16
2022-09-23T12:36:06.633Z,58.79
2022-09-23T12:38:36.653Z,58.61
2022-09-23T12:41:20.517Z,57.08
2022-09-23T12:43:53.870Z,57.92
2022-09-23T12:46:26.197Z,55.48
2022-09-23T12:49:02.863Z,54.96
2022-09-23T12:51:34.115Z,56.64
2022-09-23T12:54:24.120Z,53.54
2022-09-23T12:57:00.395Z,55.49
2022-09-23T12:59:30.848Z,51.60
2022-09-23T13:02:12.164Z,53.89
2022-09-23T13:05:14.820Z,55.61
2022-09-23T13:07:47.090Z,53.41
2022-09-23T13:10:19.350Z,52.77
2022-09-23T13:12:47.864Z,53.44
2022-09-23T13:15:28.168Z,53.52
2022-09-23T13:18:24.745Z,52.16
2022-09-23T13:20:57.003Z,52.87
2022-09-23T13:23:27.540Z,52.67
2022-09-23T13:25:57.735Z,49.83
2022-09-23T13:28:32.398Z,51.97
2022-09-23T13:31:05.170Z,53.14
2022-09-23T13:33:39.768Z,50.66
2022-09-23T13:36:13.464Z,54.19
2022-09-23T13:38:42.980Z,54.70
2022-09-23T13:41:14.960Z,53.99
2022-09-23T13:43:44.963Z,50.08
2022-09-23T13:46:14.617Z,51.74
2022-09-23T13:48:45.353Z,48.80
2022-09-23T13:51:24.577Z,52.20
2022-09-23T13:53:55.628Z,52.03
2022-09-23T13:56:24.970Z,52.24
2022-09-23T13:58:53.381Z,50.19
2022-09-23T14:01:32.336Z,50.31
2022-09-23T14:04:00.843Z,48.52
2022-09-23T14:06:30.995Z,53.03
2022-09-23T14:09:02.167Z,54.40
2022-09-23T14:11:31.403Z,51.16
2022-09-23T14:14:07.635Z,51.26
2022-09-23T14:16:37.950Z,49.85
2022-09-23T14:19:06.630Z,51.28
2022-09-23T14:21:36.179Z,51.23
2022-09-23T14:24:23.731Z,52.19
2022-09-23T14:26:54.382Z,53.20
2022-09-23T14:29:25.675Z,51.94
2022-09-23T14:31:57.720Z,52.12
2022-09-23T14:34:47.035Z,48.89
2022-09-23T14:37:41.107Z,50.33
2022-09-23T14:40:14.995Z,49.88
2022-09-23T14:42:44.912Z,49.85
2022-09-23T14:45:15.843Z,51.32
2022-09-23T14:47:46.326Z,53.93
2022-09-23T14:50:39.504Z,53.32
2022-09-23T14:53:33.839Z,51.61
2022-09-23T14:56:17.108Z,54.17
2022-09-23T14:58:52.353Z,50.35
2022-09-23T15:01:33.976Z,50.55
2022-09-23T15:04:11.756Z,47.76
2022-09-23T15:06:41.701Z,48.50
2022-09-23T15:09:13.145Z,51.60
2022-09-23T15:11:41.175Z,51.94
2022-09-23T15:14:36.150Z,51.65
2022-09-23T15:16:59.472Z,53.51
2022-09-23T15:19:28.309Z,53.36
2022-09-23T15:21:56.318Z,52.39
2022-09-23T15:24:40.168Z,52.54
2022-09-23T15:27:29.666Z,50.96
2022-09-23T15:30:03.927Z,50.11
2022-09-23T15:32:31.936Z,48.73
2022-09-23T15:34:59.944Z,47.19
2022-09-23T15:37:28.746Z,47.89
2022-09-23T15:39:59.298Z,48.69
2022-09-23T15:42:27.523Z,49.18
2022-09-23T15:44:55.483Z,48.63
2022-09-23T15:47:23.488Z,48.01
2022-09-23T15:49:51.634Z,47.68
2022-09-23T15:52:22.823Z,49.07
2022-09-23T15:54:50.849Z,48.60
2022-09-23T15:57:21.546Z,47.84
2022-09-23T15:59:49.720Z,48.81
2022-09-23T16:02:21.339Z,49.87
2022-09-23T16:04:50.992Z,49.80
2022-09-23T16:07:19.864Z,49.95
2022-09-23T16:09:47.951Z,50.89
2022-09-23T16:12:16.001Z,49.36
2022-09-23T16:14:45.364Z,49.19
2022-09-23T16:17:14.947Z,49.40
2022-09-23T16:19:43.538Z,50.31
2022-09-23T16:22:11.895Z,49.57
2022-09-23T16:24:41.187Z,50.43
2022-09-23T16:27:09.393Z,50.82
2022-09-23T16:29:37.415Z,51.24
2022-09-23T16:32:06.842Z,51.13
2022-09-23T16:34:34.938Z,50.60
2022-09-23T16:37:03.768Z,51.25
2022-09-23T16:39:31.779Z,51.59
2022-09-23T16:41:59.765Z,52.40
2022-09-23T16:44:27.751Z,52.71
2022-09-23T16:46:57.702Z,53.06
2022-09-23T16:49:27.414Z,53.75
2022-09-23T16:51:55.385Z,53.90
2022-09-23T16:54:23.921Z,54.16
2022-09-23T16:56:52.205Z,54.31
2022-09-23T16:59:20.163Z,54.59
2022-09-23T17:02:05.864Z,55.00
2022-09-23T17:04:35.246Z,55.13
2022-09-23T17:07:03.212Z,55.37
2022-09-23T17:09:31.257Z,55.39
2022-09-23T17:12:04.658Z,55.11
2022-09-23T17:14:32.733Z,55.28
2022-09-23T17:17:01.310Z,55.66
2022-09-23T17:19:29.371Z,56.03
2022-09-23T17:21:58.729Z,55.84
2022-09-23T17:24:26.766Z,56.44
2022-09-23T17:26:54.793Z,56.58
2022-09-23T17:29:22.783Z,57.53
2022-09-23T17:31:50.826Z,57.63
2022-09-23T17:34:19.618Z,57.71
2022-09-23T17:36:47.661Z,58.34
2022-09-23T17:39:18.339Z,58.26
2022-09-23T17:41:46.446Z,58.92
2022-09-23T17:44:16.143Z,59.36
2022-09-23T17:46:44.154Z,59.60
2022-09-23T17:49:12.177Z,60.03
2022-09-23T17:51:40.554Z,60.44
2022-09-23T17:54:08.878Z,60.40
2022-09-23T17:56:38.294Z,61.11
2022-09-23T17:59:06.342Z,62.55
2022-09-23T18:01:35.573Z,62.30
2022-09-23T18:04:05.683Z,62.78
2022-09-23T18:06:36.632Z,63.31
2022-09-23T18:09:06.234Z,63.47
2022-09-23T18:11:36.088Z,63.19
2022-09-23T18:14:07.430Z,63.05
2022-09-23T18:16:37.058Z,63.68
2022-09-23T18:19:05.608Z,63.60
2022-09-23T18:21:36.371Z,63.76
2022-09-23T18:26:54.573Z,64.79
2022-09-23T18:29:23.960Z,65.20
2022-09-23T18:31:52.222Z,65.27
2022-09-23T18:34:20.442Z,65.71
2022-09-23T18:36:48.576Z,66.28
2022-09-23T18:39:16.728Z,66.95
2022-09-23T18:41:44.754Z,67.18
2022-09-23T18:44:12.839Z,67.51
2022-09-23T18:46:42.786Z,67.94
2022-09-23T18:49:28.210Z,67.93
2022-09-23T18:51:57.311Z,68.18
2022-09-23T18:54:26.128Z,68.65
2022-09-23T18:56:54.334Z,68.43
2022-09-23T18:59:25.203Z,68.53
2022-09-23T19:01:55.559Z,68.72
2022-09-23T19:04:24.982Z,68.80
2022-09-23T19:06:53.695Z,68.96
2022-09-23T19:09:21.820Z,69.15
2022-09-23T19:11:52.165Z,68.95
2022-09-23T19:14:20.870Z,69.17
2022-09-23T19:16:50.678Z,69.48
2022-09-23T19:19:20.090Z,69.93
2022-09-23T19:21:48.153Z,70.04
2022-09-23T19:24:20.046Z,69.66
2022-09-23T19:26:48.587Z,70.21
2022-09-23T19:29:19.568Z,70.54
2022-09-23T19:31:47.905Z,71.18
2022-09-23T19:34:17.781Z,71.64
2022-09-23T19:36:48.280Z,72.56
2022-09-23T19:39:18.606Z,72.32
2022-09-23T19:41:47.156Z,71.51
2022-09-23T19:44:16.576Z,71.49
2022-09-23T19:46:45.823Z,71.76
2022-09-23T19:49:14.487Z,71.51
2022-09-23T19:51:44.115Z,71.86
2022-09-23T19:54:19.074Z,72.12
2022-09-23T19:56:47.681Z,72.45
2022-09-23T19:59:18.771Z,72.68
2022-09-23T20:01:47.755Z,72.62
2022-09-23T20:04:16.650Z,72.56
2022-09-23T20:06:46.127Z,73.05
2022-09-23T20:09:15.628Z,73.08
2022-09-23T20:11:44.274Z,73.40
2022-09-23T20:14:13.049Z,73.54
2022-09-23T20:16:41.474Z,73.48
2022-09-23T20:19:11.163Z,73.89
2022-09-23T20:21:39.218Z,73.64
2022-09-23T20:24:09.567Z,73.77
2022-09-23T20:26:56.883Z,73.63
2022-09-23T20:29:24.871Z,73.32
2022-09-23T20:31:53.259Z,73.56
2022-09-23T20:34:21.638Z,73.42
2022-09-23T20:36:49.713Z,73.79
2022-09-23T20:39:17.800Z,74.29
2022-09-23T20:41:48.179Z,73.78
2022-09-23T20:44:17.187Z,73.99
2022-09-23T20:46:48.469Z,73.92
2022-09-23T20:49:17.866Z,73.97
2022-09-23T20:51:46.072Z,74.47
2022-09-23T20:54:14.113Z,74.54
2022-09-23T20:56:42.206Z,74.81
2022-09-23T20:59:14.824Z,74.73
2022-09-23T21:01:42.884Z,74.54
2022-09-23T21:04:11.399Z,74.30
2022-09-23T21:06:39.732Z,74.87
2022-09-23T21:09:08.800Z,74.62
2022-09-23T21:11:36.868Z,74.56
2022-09-23T21:14:04.925Z,74.32
2022-09-23T21:16:34.394Z,75.23
2022-09-23T21:19:02.962Z,75.27
2022-09-23T21:21:31.136Z,75.75
2022-09-23T21:24:17.175Z,75.86
2022-09-23T21:26:47.359Z,76.36
2022-09-23T21:29:15.416Z,76.17
2022-09-23T21:31:45.343Z,76.33
2022-09-23T21:34:13.956Z,76.79
2022-09-23T21:36:44.142Z,76.73
2022-09-23T21:39:12.889Z,76.79
2022-09-23T21:41:41.096Z,76.00
2022-09-23T21:44:09.400Z,76.40
2022-09-23T21:46:37.789Z,75.43
2022-09-23T21:49:09.053Z,76.34
2022-09-23T21:51:40.478Z,76.15
2022-09-23T21:54:12.766Z,76.17
2022-09-23T21:56:40.859Z,76.09
2022-09-23T21:59:08.994Z,76.07
2022-09-23T22:01:38.331Z,76.58
2022-09-23T22:04:13.142Z,76.46
2022-09-23T22:06:41.632Z,76.46
2022-09-23T22:09:11.787Z,76.35
2022-09-23T22:11:58.498Z,77.02
2022-09-23T22:14:27.255Z,76.59
2022-09-23T22:16:57.506Z,77.10
2022-09-23T22:19:28.511Z,77.31
2022-09-23T22:21:56.633Z,76.89
2022-09-23T22:24:24.621Z,77.03
2022-09-23T22:26:52.716Z,77.02
2022-09-23T22:29:38.414Z,77.55
2022-09-23T22:32:27.611Z,77.41
2022-09-23T22:34:57.550Z,76.77
2022-09-23T22:37:27.485Z,77.05
2022-09-23T22:39:56.121Z,77.29
2022-09-23T22:42:24.250Z,77.02
2022-09-23T22:44:52.436Z,76.75
2022-09-23T22:47:21.111Z,77.08
2022-09-23T22:49:54.577Z,77.59
2022-09-23T22:52:25.215Z,77.49
2022-09-23T22:54:53.564Z,77.08
2022-09-23T22:57:21.585Z,77.09
2022-09-23T22:59:49.591Z,77.57
2022-09-23T23:02:18.371Z,77.77
2022-09-23T23:04:47.549Z,77.46
2022-09-23T23:07:16.504Z,77.96
2022-09-23T23:09:45.895Z,78.44
2022-09-23T23:12:13.913Z,78.40
2022-09-23T23:14:42.405Z,78.29
2022-09-23T23:17:10.507Z,78.36
2022-09-23T23:19:38.641Z,78.01
2022-09-23T23:22:06.693Z,77.89
2022-09-23T23:24:34.715Z,77.97
2022-09-23T23:27:04.104Z,77.85
2022-09-23T23:29:32.221Z,78.23
2022-09-23T23:32:00.240Z,78.64
2022-09-23T23:34:28.341Z,78.77
2022-09-23T23:36:56.399Z,78.79
2022-09-23T23:39:25.666Z,77.30
2022-09-23T23:41:54.883Z,78.24
2022-09-23T23:44:25.096Z,77.99
2022-09-23T23:46:53.719Z,78.13
2022-09-23T23:49:22.014Z,78.06
2022-09-23T23:51:50.247Z,77.74
2022-09-23T23:54:18.355Z,77.51
2022-09-23T23:56:46.464Z,77.69
2022-09-23T23:59:14.516Z,78.29
